sensor_id;sensor_type;location;lat;lon;timestamp;P1;durP1;ratioP1;P2;durP2;ratioP2
14858;SDS011;7521;51.700;6.874;2023-01-19T00:00:06;22.98;;;12.95;;
14858;SDS011;7521;51.700;6.874;2023-01-19T00:03:15;17.83;;;12.40;;
14858;SDS011;7521;51.700;6.874;2023-01-19T00:06:21;21.07;;;12.93;;
14858;SDS011;7521;51.700;6.874;2023-01-19T00:09:26;17.40;;;11.55;;
14858;SDS011;7521;51.700;6.874;2023-01-19T00:12:37;19.77;;;12.13;;
14858;SDS011;7521;51.700;6.874;2023-01-19T00:15:42;18.63;;;13.45;;
14858;SDS011;7521;51.700;6.874;2023-01-19T00:18:48;22.63;;;12.50;;
14858;SDS011;7521;51.700;6.874;2023-01-19T00:21:54;21.27;;;13.23;;
14858;SDS011;7521;51.700;6.874;2023-01-19T00:25:00;19.47;;;12.83;;
14858;SDS011;7521;51.700;6.874;2023-01-19T00:28:05;22.80;;;14.73;;
14858;SDS011;7521;51.700;6.874;2023-01-19T00:31:10;23.65;;;13.85;;
14858;SDS011;7521;51.700;6.874;2023-01-19T00:34:16;20.80;;;14.17;;
14858;SDS011;7521;51.700;6.874;2023-01-19T00:37:21;18.67;;;13.10;;
14858;SDS011;7521;51.700;6.874;2023-01-19T00:40:26;24.03;;;13.47;;
14858;SDS011;7521;51.700;6.874;2023-01-19T00:43:31;20.60;;;13.43;;
14858;SDS011;7521;51.700;6.874;2023-01-19T00:46:37;19.17;;;14.43;;
14858;SDS011;7521;51.700;6.874;2023-01-19T00:49:42;25.37;;;14.83;;
14858;SDS011;7521;51.700;6.874;2023-01-19T00:52:47;20.83;;;14.25;;
14858;SDS011;7521;51.700;6.874;2023-01-19T00:55:53;21.17;;;13.83;;
14858;SDS011;7521;51.700;6.874;2023-01-19T00:58:59;21.50;;;14.60;;
14858;SDS011;7521;51.700;6.874;2023-01-19T01:02:04;24.23;;;13.60;;
14858;SDS011;7521;51.700;6.874;2023-01-19T01:05:10;18.30;;;12.77;;
14858;SDS011;7521;51.700;6.874;2023-01-19T01:08:15;18.03;;;13.07;;
14858;SDS011;7521;51.700;6.874;2023-01-19T01:11:20;24.48;;;14.32;;
14858;SDS011;7521;51.700;6.874;2023-01-19T01:14:25;21.23;;;14.15;;
14858;SDS011;7521;51.700;6.874;2023-01-19T01:17:30;19.30;;;13.32;;
14858;SDS011;7521;51.700;6.874;2023-01-19T01:20:36;19.00;;;13.73;;
14858;SDS011;7521;51.700;6.874;2023-01-19T01:23:41;23.20;;;14.27;;
14858;SDS011;7521;51.700;6.874;2023-01-19T01:26:46;20.35;;;13.98;;
14858;SDS011;7521;51.700;6.874;2023-01-19T01:29:51;20.83;;;14.73;;
14858;SDS011;7521;51.700;6.874;2023-01-19T01:32:56;21.88;;;14.60;;
14858;SDS011;7521;51.700;6.874;2023-01-19T01:36:02;23.98;;;15.13;;
14858;SDS011;7521;51.700;6.874;2023-01-19T01:39:07;24.07;;;15.00;;
14858;SDS011;7521;51.700;6.874;2023-01-19T01:42:16;22.83;;;14.55;;
14858;SDS011;7521;51.700;6.874;2023-01-19T01:48:35;22.50;;;15.33;;
14858;SDS011;7521;51.700;6.874;2023-01-19T01:51:45;19.83;;;14.03;;
14858;SDS011;7521;51.700;6.874;2023-01-19T01:54:52;22.33;;;14.77;;
14858;SDS011;7521;51.700;6.874;2023-01-19T01:58:00;21.83;;;15.13;;
14858;SDS011;7521;51.700;6.874;2023-01-19T02:01:06;20.77;;;13.97;;
14858;SDS011;7521;51.700;6.874;2023-01-19T02:04:30;21.93;;;15.17;;
14858;SDS011;7521;51.700;6.874;2023-01-19T02:07:44;21.00;;;15.33;;
14858;SDS011;7521;51.700;6.874;2023-01-19T02:11:08;20.90;;;14.57;;
14858;SDS011;7521;51.700;6.874;2023-01-19T02:14:33;25.07;;;15.33;;
14858;SDS011;7521;51.700;6.874;2023-01-19T02:17:39;21.57;;;14.53;;
14858;SDS011;7521;51.700;6.874;2023-01-19T02:20:56;19.73;;;14.57;;
14858;SDS011;7521;51.700;6.874;2023-01-19T02:24:02;24.70;;;13.73;;
14858;SDS011;7521;51.700;6.874;2023-01-19T02:27:08;23.57;;;14.93;;
14858;SDS011;7521;51.700;6.874;2023-01-19T02:30:13;21.13;;;14.37;;
14858;SDS011;7521;51.700;6.874;2023-01-19T02:33:20;20.73;;;14.40;;
14858;SDS011;7521;51.700;6.874;2023-01-19T02:36:27;20.20;;;13.80;;
14858;SDS011;7521;51.700;6.874;2023-01-19T02:39:37;21.60;;;14.30;;
14858;SDS011;7521;51.700;6.874;2023-01-19T02:42:44;22.10;;;14.70;;
14858;SDS011;7521;51.700;6.874;2023-01-19T02:45:50;20.47;;;14.50;;
14858;SDS011;7521;51.700;6.874;2023-01-19T02:48:58;23.63;;;14.60;;
14858;SDS011;7521;51.700;6.874;2023-01-19T02:52:04;23.00;;;15.47;;
14858;SDS011;7521;51.700;6.874;2023-01-19T02:55:16;22.30;;;15.07;;
14858;SDS011;7521;51.700;6.874;2023-01-19T02:58:31;23.63;;;14.53;;
14858;SDS011;7521;51.700;6.874;2023-01-19T03:05:16;26.77;;;15.60;;
14858;SDS011;7521;51.700;6.874;2023-01-19T03:08:36;21.03;;;14.03;;
14858;SDS011;7521;51.700;6.874;2023-01-19T03:11:46;22.80;;;16.13;;
14858;SDS011;7521;51.700;6.874;2023-01-19T03:14:54;22.67;;;16.40;;
14858;SDS011;7521;51.700;6.874;2023-01-19T03:18:02;20.67;;;13.40;;
14858;SDS011;7521;51.700;6.874;2023-01-19T03:21:10;23.20;;;15.23;;
14858;SDS011;7521;51.700;6.874;2023-01-19T03:24:17;22.10;;;14.50;;
14858;SDS011;7521;51.700;6.874;2023-01-19T03:27:24;20.53;;;13.27;;
14858;SDS011;7521;51.700;6.874;2023-01-19T03:30:31;24.77;;;14.97;;
14858;SDS011;7521;51.700;6.874;2023-01-19T03:33:37;22.27;;;13.73;;
14858;SDS011;7521;51.700;6.874;2023-01-19T03:36:45;19.67;;;13.83;;
14858;SDS011;7521;51.700;6.874;2023-01-19T03:39:53;22.97;;;13.87;;
14858;SDS011;7521;51.700;6.874;2023-01-19T03:42:59;22.17;;;13.80;;
14858;SDS011;7521;51.700;6.874;2023-01-19T03:46:04;23.40;;;14.27;;
14858;SDS011;7521;51.700;6.874;2023-01-19T03:49:10;23.67;;;14.80;;
14858;SDS011;7521;51.700;6.874;2023-01-19T03:52:15;22.73;;;13.53;;
14858;SDS011;7521;51.700;6.874;2023-01-19T03:55:20;19.23;;;12.90;;
14858;SDS011;7521;51.700;6.874;2023-01-19T03:58:26;20.40;;;13.93;;
14858;SDS011;7521;51.700;6.874;2023-01-19T04:01:32;23.23;;;13.33;;
14858;SDS011;7521;51.700;6.874;2023-01-19T04:04:37;21.63;;;12.93;;
14858;SDS011;7521;51.700;6.874;2023-01-19T04:07:42;21.48;;;12.38;;
14858;SDS011;7521;51.700;6.874;2023-01-19T04:10:47;21.90;;;12.77;;
14858;SDS011;7521;51.700;6.874;2023-01-19T04:13:52;19.73;;;13.13;;
14858;SDS011;7521;51.700;6.874;2023-01-19T04:16:58;18.25;;;12.35;;
14858;SDS011;7521;51.700;6.874;2023-01-19T04:20:03;18.52;;;12.38;;
14858;SDS011;7521;51.700;6.874;2023-01-19T04:23:08;22.20;;;13.60;;
14858;SDS011;7521;51.700;6.874;2023-01-19T04:26:14;20.42;;;12.75;;
14858;SDS011;7521;51.700;6.874;2023-01-19T04:29:19;19.20;;;13.37;;
14858;SDS011;7521;51.700;6.874;2023-01-19T04:32:25;20.47;;;13.47;;
14858;SDS011;7521;51.700;6.874;2023-01-19T04:35:30;22.30;;;13.50;;
14858;SDS011;7521;51.700;6.874;2023-01-19T04:38:35;18.52;;;13.02;;
14858;SDS011;7521;51.700;6.874;2023-01-19T04:41:40;21.63;;;13.83;;
14858;SDS011;7521;51.700;6.874;2023-01-19T04:44:45;26.10;;;15.32;;
14858;SDS011;7521;51.700;6.874;2023-01-19T04:47:50;23.17;;;14.60;;
14858;SDS011;7521;51.700;6.874;2023-01-19T04:50:56;19.83;;;14.23;;
14858;SDS011;7521;51.700;6.874;2023-01-19T04:54:01;24.55;;;15.13;;
14858;SDS011;7521;51.700;6.874;2023-01-19T04:57:06;19.60;;;13.70;;
14858;SDS011;7521;51.700;6.874;2023-01-19T05:00:12;25.40;;;15.33;;
14858;SDS011;7521;51.700;6.874;2023-01-19T05:03:18;24.03;;;14.83;;
14858;SDS011;7521;51.700;6.874;2023-01-19T05:06:23;24.03;;;15.03;;
14858;SDS011;7521;51.700;6.874;2023-01-19T05:09:28;26.48;;;17.30;;
14858;SDS011;7521;51.700;6.874;2023-01-19T05:12:33;22.83;;;16.08;;
14858;SDS011;7521;51.700;6.874;2023-01-19T05:15:38;23.73;;;15.40;;
14858;SDS011;7521;51.700;6.874;2023-01-19T05:18:43;20.83;;;15.05;;
14858;SDS011;7521;51.700;6.874;2023-01-19T05:21:49;22.85;;;15.13;;
14858;SDS011;7521;51.700;6.874;2023-01-19T05:24:54;22.08;;;14.48;;
14858;SDS011;7521;51.700;6.874;2023-01-19T05:27:59;20.10;;;14.05;;
14858;SDS011;7521;51.700;6.874;2023-01-19T05:31:04;20.97;;;14.63;;
14858;SDS011;7521;51.700;6.874;2023-01-19T05:34:10;20.10;;;14.50;;
14858;SDS011;7521;51.700;6.874;2023-01-19T05:37:15;21.27;;;14.93;;
14858;SDS011;7521;51.700;6.874;2023-01-19T05:40:21;20.10;;;14.27;;
14858;SDS011;7521;51.700;6.874;2023-01-19T05:43:26;19.75;;;14.35;;
14858;SDS011;7521;51.700;6.874;2023-01-19T05:46:32;18.90;;;14.10;;
14858;SDS011;7521;51.700;6.874;2023-01-19T05:49:37;19.57;;;14.40;;
14858;SDS011;7521;51.700;6.874;2023-01-19T05:52:42;18.42;;;13.75;;
14858;SDS011;7521;51.700;6.874;2023-01-19T05:55:47;18.00;;;13.50;;
14858;SDS011;7521;51.700;6.874;2023-01-19T05:58:52;17.95;;;13.93;;
14858;SDS011;7521;51.700;6.874;2023-01-19T06:01:57;16.40;;;12.75;;
14858;SDS011;7521;51.700;6.874;2023-01-19T06:05:03;17.13;;;13.83;;
14858;SDS011;7521;51.700;6.874;2023-01-19T06:08:09;19.23;;;15.03;;
14858;SDS011;7521;51.700;6.874;2023-01-19T06:11:14;17.25;;;13.45;;
14858;SDS011;7521;51.700;6.874;2023-01-19T06:14:19;19.47;;;15.03;;
14858;SDS011;7521;51.700;6.874;2023-01-19T06:17:25;17.77;;;13.77;;
14858;SDS011;7521;51.700;6.874;2023-01-19T06:20:30;17.73;;;13.77;;
14858;SDS011;7521;51.700;6.874;2023-01-19T06:23:35;17.90;;;14.03;;
14858;SDS011;7521;51.700;6.874;2023-01-19T06:26:40;17.53;;;13.10;;
14858;SDS011;7521;51.700;6.874;2023-01-19T06:29:47;17.63;;;14.40;;
14858;SDS011;7521;51.700;6.874;2023-01-19T06:32:52;18.80;;;14.57;;
14858;SDS011;7521;51.700;6.874;2023-01-19T06:35:57;17.30;;;14.03;;
14858;SDS011;7521;51.700;6.874;2023-01-19T06:39:03;18.27;;;14.27;;
14858;SDS011;7521;51.700;6.874;2023-01-19T06:42:10;18.73;;;14.17;;
14858;SDS011;7521;51.700;6.874;2023-01-19T06:45:15;16.97;;;13.90;;
14858;SDS011;7521;51.700;6.874;2023-01-19T06:48:20;19.30;;;14.93;;
14858;SDS011;7521;51.700;6.874;2023-01-19T06:51:26;18.87;;;14.13;;
14858;SDS011;7521;51.700;6.874;2023-01-19T06:54:31;18.48;;;14.43;;
14858;SDS011;7521;51.700;6.874;2023-01-19T06:57:36;17.13;;;14.18;;
14858;SDS011;7521;51.700;6.874;2023-01-19T07:00:42;19.17;;;15.10;;
14858;SDS011;7521;51.700;6.874;2023-01-19T07:03:47;19.27;;;14.90;;
14858;SDS011;7521;51.700;6.874;2023-01-19T07:06:52;18.25;;;13.88;;
14858;SDS011;7521;51.700;6.874;2023-01-19T07:09:57;22.30;;;13.48;;
14858;SDS011;7521;51.700;6.874;2023-01-19T07:13:03;17.70;;;13.13;;
14858;SDS011;7521;51.700;6.874;2023-01-19T07:16:09;19.90;;;14.18;;
14858;SDS011;7521;51.700;6.874;2023-01-19T07:19:14;16.27;;;13.23;;
14858;SDS011;7521;51.700;6.874;2023-01-19T07:22:19;16.93;;;13.07;;
14858;SDS011;7521;51.700;6.874;2023-01-19T07:25:25;15.43;;;12.30;;
14858;SDS011;7521;51.700;6.874;2023-01-19T07:28:30;18.03;;;12.00;;
14858;SDS011;7521;51.700;6.874;2023-01-19T07:31:36;19.63;;;12.73;;
14858;SDS011;7521;51.700;6.874;2023-01-19T07:34:41;16.45;;;11.38;;
14858;SDS011;7521;51.700;6.874;2023-01-19T07:37:47;16.38;;;14.15;;
14858;SDS011;7521;51.700;6.874;2023-01-19T07:40:58;16.40;;;10.77;;
14858;SDS011;7521;51.700;6.874;2023-01-19T07:44:04;13.60;;;9.80;;
14858;SDS011;7521;51.700;6.874;2023-01-19T07:47:09;13.63;;;8.87;;
14858;SDS011;7521;51.700;6.874;2023-01-19T07:50:16;13.87;;;9.70;;
14858;SDS011;7521;51.700;6.874;2023-01-19T07:53:25;12.83;;;9.33;;
14858;SDS011;7521;51.700;6.874;2023-01-19T07:56:30;15.57;;;9.17;;
14858;SDS011;7521;51.700;6.874;2023-01-19T07:59:37;12.77;;;8.80;;
14858;SDS011;7521;51.700;6.874;2023-01-19T08:02:42;14.63;;;9.07;;
14858;SDS011;7521;51.700;6.874;2023-01-19T08:05:48;16.87;;;9.20;;
14858;SDS011;7521;51.700;6.874;2023-01-19T08:08:54;23.53;;;9.83;;
14858;SDS011;7521;51.700;6.874;2023-01-19T08:11:59;20.10;;;9.73;;
14858;SDS011;7521;51.700;6.874;2023-01-19T08:15:04;13.07;;;9.07;;
14858;SDS011;7521;51.700;6.874;2023-01-19T08:18:10;12.70;;;9.50;;
14858;SDS011;7521;51.700;6.874;2023-01-19T08:21:15;17.03;;;10.60;;
14858;SDS011;7521;51.700;6.874;2023-01-19T08:24:21;14.73;;;9.88;;
14858;SDS011;7521;51.700;6.874;2023-01-19T08:27:26;18.37;;;11.83;;
14858;SDS011;7521;51.700;6.874;2023-01-19T08:30:31;16.55;;;11.40;;
14858;SDS011;7521;51.700;6.874;2023-01-19T08:33:37;18.60;;;11.77;;
14858;SDS011;7521;51.700;6.874;2023-01-19T08:36:42;15.60;;;11.10;;
14858;SDS011;7521;51.700;6.874;2023-01-19T08:39:47;17.98;;;12.88;;
14858;SDS011;7521;51.700;6.874;2023-01-19T08:42:52;16.43;;;13.30;;
14858;SDS011;7521;51.700;6.874;2023-01-19T08:46:03;20.37;;;14.77;;
14858;SDS011;7521;51.700;6.874;2023-01-19T08:49:08;18.97;;;14.83;;
14858;SDS011;7521;51.700;6.874;2023-01-19T08:52:14;19.23;;;15.33;;
14858;SDS011;7521;51.700;6.874;2023-01-19T08:55:19;22.27;;;17.05;;
14858;SDS011;7521;51.700;6.874;2023-01-19T08:58:24;21.25;;;16.25;;
14858;SDS011;7521;51.700;6.874;2023-01-19T09:01:29;29.30;;;18.13;;
14858;SDS011;7521;51.700;6.874;2023-01-19T09:04:35;22.57;;;17.20;;
14858;SDS011;7521;51.700;6.874;2023-01-19T09:07:40;26.80;;;17.03;;
14858;SDS011;7521;51.700;6.874;2023-01-19T09:10:48;24.50;;;18.00;;
14858;SDS011;7521;51.700;6.874;2023-01-19T09:13:53;26.07;;;18.50;;
14858;SDS011;7521;51.700;6.874;2023-01-19T09:16:59;24.23;;;18.00;;
14858;SDS011;7521;51.700;6.874;2023-01-19T09:20:04;24.37;;;18.97;;
14858;SDS011;7521;51.700;6.874;2023-01-19T09:23:10;29.77;;;19.70;;
14858;SDS011;7521;51.700;6.874;2023-01-19T09:26:16;28.00;;;20.70;;
14858;SDS011;7521;51.700;6.874;2023-01-19T09:29:21;29.33;;;21.00;;
14858;SDS011;7521;51.700;6.874;2023-01-19T09:32:26;30.70;;;21.20;;
14858;SDS011;7521;51.700;6.874;2023-01-19T09:35:32;31.13;;;21.33;;
14858;SDS011;7521;51.700;6.874;2023-01-19T09:38:37;31.90;;;21.80;;
14858;SDS011;7521;51.700;6.874;2023-01-19T09:41:44;31.07;;;21.77;;
14858;SDS011;7521;51.700;6.874;2023-01-19T09:44:50;34.50;;;22.20;;
14858;SDS011;7521;51.700;6.874;2023-01-19T09:47:57;30.67;;;21.90;;
14858;SDS011;7521;51.700;6.874;2023-01-19T09:51:04;31.97;;;22.13;;
14858;SDS011;7521;51.700;6.874;2023-01-19T09:57:20;36.93;;;23.40;;
14858;SDS011;7521;51.700;6.874;2023-01-19T10:00:25;35.83;;;23.60;;
14858;SDS011;7521;51.700;6.874;2023-01-19T10:03:33;34.07;;;22.97;;
14858;SDS011;7521;51.700;6.874;2023-01-19T10:06:39;36.70;;;24.67;;
14858;SDS011;7521;51.700;6.874;2023-01-19T10:13:15;39.67;;;24.63;;
14858;SDS011;7521;51.700;6.874;2023-01-19T10:19:39;33.23;;;22.63;;
14858;SDS011;7521;51.700;6.874;2023-01-19T10:22:46;39.70;;;24.10;;
14858;SDS011;7521;51.700;6.874;2023-01-19T10:25:52;33.53;;;22.93;;
14858;SDS011;7521;51.700;6.874;2023-01-19T10:29:01;36.53;;;22.73;;
14858;SDS011;7521;51.700;6.874;2023-01-19T10:35:14;37.45;;;23.92;;
14858;SDS011;7521;51.700;6.874;2023-01-19T10:38:25;40.10;;;26.37;;
14858;SDS011;7521;51.700;6.874;2023-01-19T10:41:54;38.63;;;24.67;;
14858;SDS011;7521;51.700;6.874;2023-01-19T10:44:58;33.77;;;22.53;;
14858;SDS011;7521;51.700;6.874;2023-01-19T10:48:04;34.63;;;22.60;;
14858;SDS011;7521;51.700;6.874;2023-01-19T10:51:10;38.50;;;22.13;;
14858;SDS011;7521;51.700;6.874;2023-01-19T10:54:15;33.27;;;22.03;;
14858;SDS011;7521;51.700;6.874;2023-01-19T10:57:25;34.13;;;20.07;;
14858;SDS011;7521;51.700;6.874;2023-01-19T11:03:37;34.77;;;21.33;;
14858;SDS011;7521;51.700;6.874;2023-01-19T11:06:42;33.33;;;21.08;;
14858;SDS011;7521;51.700;6.874;2023-01-19T11:09:48;32.37;;;20.30;;
14858;SDS011;7521;51.700;6.874;2023-01-19T11:13:01;33.27;;;20.17;;
14858;SDS011;7521;51.700;6.874;2023-01-19T11:16:13;39.17;;;21.70;;
14858;SDS011;7521;51.700;6.874;2023-01-19T11:19:30;33.67;;;20.17;;
14858;SDS011;7521;51.700;6.874;2023-01-19T11:22:35;31.97;;;20.40;;
14858;SDS011;7521;51.700;6.874;2023-01-19T11:25:43;34.00;;;20.47;;
14858;SDS011;7521;51.700;6.874;2023-01-19T11:28:49;33.27;;;18.57;;
14858;SDS011;7521;51.700;6.874;2023-01-19T11:31:55;29.93;;;18.57;;
14858;SDS011;7521;51.700;6.874;2023-01-19T11:38:40;31.53;;;17.47;;
14858;SDS011;7521;51.700;6.874;2023-01-19T11:41:48;29.33;;;17.97;;
14858;SDS011;7521;51.700;6.874;2023-01-19T11:48:03;36.00;;;18.27;;
14858;SDS011;7521;51.700;6.874;2023-01-19T11:51:12;35.60;;;18.40;;
14858;SDS011;7521;51.700;6.874;2023-01-19T11:54:22;33.13;;;18.63;;
14858;SDS011;7521;51.700;6.874;2023-01-19T11:57:29;33.13;;;18.47;;
14858;SDS011;7521;51.700;6.874;2023-01-19T12:00:45;35.17;;;18.73;;
14858;SDS011;7521;51.700;6.874;2023-01-19T12:07:17;34.17;;;19.53;;
14858;SDS011;7521;51.700;6.874;2023-01-19T12:10:27;38.23;;;20.93;;
14858;SDS011;7521;51.700;6.874;2023-01-19T12:13:33;37.30;;;20.93;;
14858;SDS011;7521;51.700;6.874;2023-01-19T12:16:39;40.63;;;22.30;;
14858;SDS011;7521;51.700;6.874;2023-01-19T12:19:48;39.97;;;21.17;;
14858;SDS011;7521;51.700;6.874;2023-01-19T12:29:28;35.93;;;19.10;;
14858;SDS011;7521;51.700;6.874;2023-01-19T12:32:34;35.27;;;18.70;;
14858;SDS011;7521;51.700;6.874;2023-01-19T12:35:53;32.07;;;18.70;;
14858;SDS011;7521;51.700;6.874;2023-01-19T12:42:23;36.33;;;20.43;;
14858;SDS011;7521;51.700;6.874;2023-01-19T12:45:29;39.53;;;19.07;;
14858;SDS011;7521;51.700;6.874;2023-01-19T12:48:36;33.10;;;19.40;;
14858;SDS011;7521;51.700;6.874;2023-01-19T12:51:41;38.70;;;20.40;;
14858;SDS011;7521;51.700;6.874;2023-01-19T13:01:16;44.83;;;25.57;;
14858;SDS011;7521;51.700;6.874;2023-01-19T13:04:30;50.40;;;25.53;;
14858;SDS011;7521;51.700;6.874;2023-01-19T13:14:32;45.63;;;24.00;;
14858;SDS011;7521;51.700;6.874;2023-01-19T13:17:44;49.13;;;25.10;;
14858;SDS011;7521;51.700;6.874;2023-01-19T13:20:57;44.80;;;24.40;;
14858;SDS011;7521;51.700;6.874;2023-01-19T13:24:05;53.30;;;25.07;;
14858;SDS011;7521;51.700;6.874;2023-01-19T13:27:10;43.90;;;23.77;;
14858;SDS011;7521;51.700;6.874;2023-01-19T13:30:16;45.70;;;23.73;;
14858;SDS011;7521;51.700;6.874;2023-01-19T13:33:24;40.00;;;22.57;;
14858;SDS011;7521;51.700;6.874;2023-01-19T13:36:36;39.63;;;23.60;;
14858;SDS011;7521;51.700;6.874;2023-01-19T13:39:42;44.57;;;24.37;;
14858;SDS011;7521;51.700;6.874;2023-01-19T13:42:48;37.57;;;23.10;;
14858;SDS011;7521;51.700;6.874;2023-01-19T13:45:55;41.03;;;23.97;;
14858;SDS011;7521;51.700;6.874;2023-01-19T13:49:02;40.67;;;22.90;;
14858;SDS011;7521;51.700;6.874;2023-01-19T13:52:12;39.77;;;22.20;;
14858;SDS011;7521;51.700;6.874;2023-01-19T13:55:18;37.27;;;21.83;;
14858;SDS011;7521;51.700;6.874;2023-01-19T13:58:24;40.00;;;21.90;;
14858;SDS011;7521;51.700;6.874;2023-01-19T14:01:30;42.87;;;21.90;;
14858;SDS011;7521;51.700;6.874;2023-01-19T14:04:36;40.50;;;21.40;;
14858;SDS011;7521;51.700;6.874;2023-01-19T14:07:42;36.40;;;21.23;;
14858;SDS011;7521;51.700;6.874;2023-01-19T14:13:58;36.80;;;19.80;;
14858;SDS011;7521;51.700;6.874;2023-01-19T14:17:03;29.73;;;17.83;;
14858;SDS011;7521;51.700;6.874;2023-01-19T14:20:27;29.57;;;18.73;;
14858;SDS011;7521;51.700;6.874;2023-01-19T14:27:23;28.60;;;19.23;;
14858;SDS011;7521;51.700;6.874;2023-01-19T14:30:28;29.43;;;18.50;;
14858;SDS011;7521;51.700;6.874;2023-01-19T14:33:34;33.40;;;19.42;;
14858;SDS011;7521;51.700;6.874;2023-01-19T14:36:40;33.73;;;17.27;;
14858;SDS011;7521;51.700;6.874;2023-01-19T14:39:47;28.97;;;17.17;;
14858;SDS011;7521;51.700;6.874;2023-01-19T14:42:56;30.63;;;18.20;;
14858;SDS011;7521;51.700;6.874;2023-01-19T14:46:03;30.93;;;18.50;;
14858;SDS011;7521;51.700;6.874;2023-01-19T14:49:12;31.43;;;17.17;;
14858;SDS011;7521;51.700;6.874;2023-01-19T14:52:25;26.60;;;16.57;;
14858;SDS011;7521;51.700;6.874;2023-01-19T14:55:35;28.23;;;16.07;;
14858;SDS011;7521;51.700;6.874;2023-01-19T14:58:41;29.87;;;16.43;;
14858;SDS011;7521;51.700;6.874;2023-01-19T15:01:46;39.42;;;17.05;;
14858;SDS011;7521;51.700;6.874;2023-01-19T15:04:52;24.75;;;16.17;;
14858;SDS011;7521;51.700;6.874;2023-01-19T15:07:59;29.20;;;15.87;;
14858;SDS011;7521;51.700;6.874;2023-01-19T15:11:09;33.13;;;16.37;;
14858;SDS011;7521;51.700;6.874;2023-01-19T15:14:16;29.20;;;16.17;;
14858;SDS011;7521;51.700;6.874;2023-01-19T15:17:22;26.93;;;16.30;;
14858;SDS011;7521;51.700;6.874;2023-01-19T15:20:30;24.43;;;15.17;;
14858;SDS011;7521;51.700;6.874;2023-01-19T15:23:35;32.58;;;16.50;;
14858;SDS011;7521;51.700;6.874;2023-01-19T15:26:41;25.85;;;14.57;;
14858;SDS011;7521;51.700;6.874;2023-01-19T15:29:46;27.63;;;15.87;;
14858;SDS011;7521;51.700;6.874;2023-01-19T15:32:51;29.20;;;15.57;;
14858;SDS011;7521;51.700;6.874;2023-01-19T15:35:57;26.20;;;16.67;;
14858;SDS011;7521;51.700;6.874;2023-01-19T15:39:02;26.23;;;15.63;;
14858;SDS011;7521;51.700;6.874;2023-01-19T15:42:09;25.60;;;16.90;;
14858;SDS011;7521;51.700;6.874;2023-01-19T15:45:33;25.80;;;16.33;;
14858;SDS011;7521;51.700;6.874;2023-01-19T15:48:39;27.50;;;17.00;;
14858;SDS011;7521;51.700;6.874;2023-01-19T15:51:44;30.33;;;16.70;;
14858;SDS011;7521;51.700;6.874;2023-01-19T15:54:49;31.60;;;17.13;;
14858;SDS011;7521;51.700;6.874;2023-01-19T15:57:54;28.80;;;17.75;;
14858;SDS011;7521;51.700;6.874;2023-01-19T16:01:05;30.88;;;21.25;;
14858;SDS011;7521;51.700;6.874;2023-01-19T16:04:10;33.10;;;18.20;;
14858;SDS011;7521;51.700;6.874;2023-01-19T16:07:15;30.53;;;17.73;;
14858;SDS011;7521;51.700;6.874;2023-01-19T16:10:21;26.33;;;16.75;;
14858;SDS011;7521;51.700;6.874;2023-01-19T16:13:26;30.20;;;17.30;;
14858;SDS011;7521;51.700;6.874;2023-01-19T16:16:33;29.63;;;16.30;;
14858;SDS011;7521;51.700;6.874;2023-01-19T16:19:39;32.92;;;17.25;;
14858;SDS011;7521;51.700;6.874;2023-01-19T16:22:44;25.02;;;15.73;;
14858;SDS011;7521;51.700;6.874;2023-01-19T16:25:59;32.53;;;16.83;;
14858;SDS011;7521;51.700;6.874;2023-01-19T16:29:06;29.77;;;16.37;;
14858;SDS011;7521;51.700;6.874;2023-01-19T16:32:12;31.23;;;16.83;;
14858;SDS011;7521;51.700;6.874;2023-01-19T16:35:17;30.45;;;16.50;;
14858;SDS011;7521;51.700;6.874;2023-01-19T16:38:23;28.02;;;16.58;;
14858;SDS011;7521;51.700;6.874;2023-01-19T16:41:28;30.93;;;15.97;;
14858;SDS011;7521;51.700;6.874;2023-01-19T16:44:33;33.58;;;17.08;;
14858;SDS011;7521;51.700;6.874;2023-01-19T16:47:38;31.67;;;17.30;;
14858;SDS011;7521;51.700;6.874;2023-01-19T16:50:44;34.97;;;17.97;;
14858;SDS011;7521;51.700;6.874;2023-01-19T16:54:00;32.27;;;18.07;;
14858;SDS011;7521;51.700;6.874;2023-01-19T16:57:06;34.72;;;18.95;;
14858;SDS011;7521;51.700;6.874;2023-01-19T17:00:11;35.53;;;20.30;;
14858;SDS011;7521;51.700;6.874;2023-01-19T17:03:16;32.13;;;18.80;;
14858;SDS011;7521;51.700;6.874;2023-01-19T17:06:22;34.50;;;20.00;;
14858;SDS011;7521;51.700;6.874;2023-01-19T17:09:27;35.20;;;19.13;;
14858;SDS011;7521;51.700;6.874;2023-01-19T17:12:32;37.03;;;19.13;;
14858;SDS011;7521;51.700;6.874;2023-01-19T17:15:38;35.13;;;19.67;;
14858;SDS011;7521;51.700;6.874;2023-01-19T17:18:43;35.77;;;18.67;;
14858;SDS011;7521;51.700;6.874;2023-01-19T17:21:48;28.17;;;17.20;;
14858;SDS011;7521;51.700;6.874;2023-01-19T17:24:54;36.70;;;19.30;;
14858;SDS011;7521;51.700;6.874;2023-01-19T17:27:59;38.05;;;18.98;;
14858;SDS011;7521;51.700;6.874;2023-01-19T17:31:16;33.13;;;19.47;;
14858;SDS011;7521;51.700;6.874;2023-01-19T17:34:21;36.60;;;19.60;;
14858;SDS011;7521;51.700;6.874;2023-01-19T17:37:27;30.70;;;19.03;;
14858;SDS011;7521;51.700;6.874;2023-01-19T17:40:32;37.60;;;19.67;;
14858;SDS011;7521;51.700;6.874;2023-01-19T17:43:37;34.85;;;20.48;;
14858;SDS011;7521;51.700;6.874;2023-01-19T17:46:42;35.88;;;20.65;;
14858;SDS011;7521;51.700;6.874;2023-01-19T17:49:47;34.70;;;19.58;;
14858;SDS011;7521;51.700;6.874;2023-01-19T17:52:52;36.70;;;20.03;;
14858;SDS011;7521;51.700;6.874;2023-01-19T17:56:08;37.05;;;20.05;;
14858;SDS011;7521;51.700;6.874;2023-01-19T17:59:13;40.90;;;23.80;;
14858;SDS011;7521;51.700;6.874;2023-01-19T18:02:18;40.30;;;22.75;;
14858;SDS011;7521;51.700;6.874;2023-01-19T18:05:28;38.77;;;19.90;;
14858;SDS011;7521;51.700;6.874;2023-01-19T18:08:33;39.30;;;20.67;;
14858;SDS011;7521;51.700;6.874;2023-01-19T18:11:40;38.97;;;21.13;;
14858;SDS011;7521;51.700;6.874;2023-01-19T18:14:46;40.13;;;21.17;;
14858;SDS011;7521;51.700;6.874;2023-01-19T18:17:52;37.37;;;20.57;;
14858;SDS011;7521;51.700;6.874;2023-01-19T18:20:58;41.42;;;21.33;;
14858;SDS011;7521;51.700;6.874;2023-01-19T18:24:04;46.30;;;24.83;;
14858;SDS011;7521;51.700;6.874;2023-01-19T18:27:09;40.03;;;22.93;;
14858;SDS011;7521;51.700;6.874;2023-01-19T18:30:14;48.17;;;22.90;;
14858;SDS011;7521;51.700;6.874;2023-01-19T18:33:20;41.43;;;22.03;;
14858;SDS011;7521;51.700;6.874;2023-01-19T18:36:25;43.13;;;21.43;;
14858;SDS011;7521;51.700;6.874;2023-01-19T18:39:30;43.10;;;21.10;;
14858;SDS011;7521;51.700;6.874;2023-01-19T18:42:35;41.53;;;23.60;;
14858;SDS011;7521;51.700;6.874;2023-01-19T18:45:41;44.20;;;25.40;;
14858;SDS011;7521;51.700;6.874;2023-01-19T18:48:46;51.00;;;27.20;;
14858;SDS011;7521;51.700;6.874;2023-01-19T18:51:51;51.78;;;26.98;;
14858;SDS011;7521;51.700;6.874;2023-01-19T18:54:56;57.07;;;28.43;;
14858;SDS011;7521;51.700;6.874;2023-01-19T18:58:01;56.95;;;28.67;;
14858;SDS011;7521;51.700;6.874;2023-01-19T19:01:42;51.17;;;27.07;;
14858;SDS011;7521;51.700;6.874;2023-01-19T19:04:40;54.37;;;28.23;;
14858;SDS011;7521;51.700;6.874;2023-01-19T19:07:45;56.10;;;28.42;;
14858;SDS011;7521;51.700;6.874;2023-01-19T19:10:50;55.70;;;29.02;;
14858;SDS011;7521;51.700;6.874;2023-01-19T19:13:56;55.17;;;28.15;;
14858;SDS011;7521;51.700;6.874;2023-01-19T19:17:02;57.40;;;29.23;;
14858;SDS011;7521;51.700;6.874;2023-01-19T19:20:07;57.70;;;28.48;;
14858;SDS011;7521;51.700;6.874;2023-01-19T19:23:13;58.33;;;27.43;;
14858;SDS011;7521;51.700;6.874;2023-01-19T19:26:18;56.13;;;26.73;;
14858;SDS011;7521;51.700;6.874;2023-01-19T19:29:23;48.20;;;27.13;;
14858;SDS011;7521;51.700;6.874;2023-01-19T19:32:28;52.20;;;26.90;;